Main page
METAR-TAF:

METAR-TAF

Airports :

Jefferson City Memorial Airport

Jefferson City, Missouri, United States

latitude: 38-35-40N, longitude: 092-09-21W, elevation: 548 ft

Current weather observation

The report was made 56 minutes ago, at 00:53 UTC
Wind 6 mph from the South
Temperature 95°F
Humidity 50%
Pressure 29.83 in. Hg
Visibility: 10 miles
Clear sky

METAR: KJEF 250053Z 17005KT 10SM CLR 35/23 A2983 RMK AO2 SLP086 T03500233 $

Time: 20:49 (01:49 UTC)

Forecast

The report was made 2 hours and 29 minutes ago, at 23:20 UTC
Forecast valid from 25 at 00 UTC to 25 at 24 UTC
Wind 9 mph from the South
Visibility: 6 miles
Clear sky
From 25 at 1500 UTC
Wind 8 mph from the West/Southwest
Visibility: 6 miles
Scattered clouds at a height of 25000 ft

TAF: KJEF 242320Z 2500/2524 19008KT P6SM SKC FM251500 24007KT P6SM SCT250

Weather observations and forecasts of more than 4000 airports (METAR and TAF reports).

The available stations are represented by yellow and red dots on the map.

Hover mouse over dot to see the name of the station.

Then click to see weather observations and forecasts.

To change the map : click on the green buttons with a black cross to zoom in, on the green button with a dash to zoom out, or on the green arrows for adjacent maps.


METAR-TAF: